sensor_id;sensor_type;location;lat;lon;timestamp;P1;durP1;ratioP1;P2;durP2;ratioP2
70078;SDS011;57451;52.496;13.456;2023-05-29T00:00:03;8.18;;;3.10;;
70078;SDS011;57451;52.496;13.456;2023-05-29T00:02:35;8.73;;;2.97;;
70078;SDS011;57451;52.496;13.456;2023-05-29T00:05:03;10.70;;;3.00;;
70078;SDS011;57451;52.496;13.456;2023-05-29T00:07:32;9.02;;;3.05;;
70078;SDS011;57451;52.496;13.456;2023-05-29T00:10:01;9.85;;;2.83;;
70078;SDS011;57451;52.496;13.456;2023-05-29T00:12:29;8.43;;;3.17;;
70078;SDS011;57451;52.496;13.456;2023-05-29T00:14:57;10.02;;;3.20;;
70078;SDS011;57451;52.496;13.456;2023-05-29T00:17:24;7.67;;;3.20;;
70078;SDS011;57451;52.496;13.456;2023-05-29T00:19:52;8.45;;;3.17;;
70078;SDS011;57451;52.496;13.456;2023-05-29T00:22:19;5.75;;;2.70;;
70078;SDS011;57451;52.496;13.456;2023-05-29T00:24:47;8.68;;;3.08;;
70078;SDS011;57451;52.496;13.456;2023-05-29T00:27:16;9.50;;;2.88;;
70078;SDS011;57451;52.496;13.456;2023-05-29T00:29:43;8.53;;;3.10;;
70078;SDS011;57451;52.496;13.456;2023-05-29T00:32:12;7.10;;;2.92;;
70078;SDS011;57451;52.496;13.456;2023-05-29T00:34:39;7.55;;;3.08;;
70078;SDS011;57451;52.496;13.456;2023-05-29T00:37:07;8.50;;;2.75;;
70078;SDS011;57451;52.496;13.456;2023-05-29T00:39:35;7.90;;;3.00;;
70078;SDS011;57451;52.496;13.456;2023-05-29T00:42:03;9.00;;;3.20;;
70078;SDS011;57451;52.496;13.456;2023-05-29T00:44:32;7.18;;;3.47;;
70078;SDS011;57451;52.496;13.456;2023-05-29T00:46:59;9.48;;;3.60;;
70078;SDS011;57451;52.496;13.456;2023-05-29T00:49:27;8.70;;;3.60;;
70078;SDS011;57451;52.496;13.456;2023-05-29T00:51:55;7.75;;;3.40;;
70078;SDS011;57451;52.496;13.456;2023-05-29T00:54:23;8.87;;;3.27;;
70078;SDS011;57451;52.496;13.456;2023-05-29T00:56:54;8.70;;;3.53;;
70078;SDS011;57451;52.496;13.456;2023-05-29T00:59:24;9.68;;;3.33;;
70078;SDS011;57451;52.496;13.456;2023-05-29T01:01:54;11.52;;;3.45;;
70078;SDS011;57451;52.496;13.456;2023-05-29T01:04:25;8.50;;;3.50;;
70078;SDS011;57451;52.496;13.456;2023-05-29T01:06:53;7.50;;;3.00;;
70078;SDS011;57451;52.496;13.456;2023-05-29T01:09:20;9.60;;;3.28;;
70078;SDS011;57451;52.496;13.456;2023-05-29T01:11:50;8.82;;;3.33;;
70078;SDS011;57451;52.496;13.456;2023-05-29T01:14:25;7.93;;;3.00;;
70078;SDS011;57451;52.496;13.456;2023-05-29T01:17:03;10.02;;;3.20;;
70078;SDS011;57451;52.496;13.456;2023-05-29T01:19:42;8.83;;;3.40;;
70078;SDS011;57451;52.496;13.456;2023-05-29T01:22:33;7.90;;;2.95;;
70078;SDS011;57451;52.496;13.456;2023-05-29T01:25:10;8.43;;;3.30;;
70078;SDS011;57451;52.496;13.456;2023-05-29T01:27:46;8.95;;;3.25;;
70078;SDS011;57451;52.496;13.456;2023-05-29T01:30:15;8.02;;;2.92;;
70078;SDS011;57451;52.496;13.456;2023-05-29T01:32:43;10.37;;;3.30;;
70078;SDS011;57451;52.496;13.456;2023-05-29T01:35:13;7.82;;;3.35;;
70078;SDS011;57451;52.496;13.456;2023-05-29T01:37:41;8.18;;;3.30;;
70078;SDS011;57451;52.496;13.456;2023-05-29T01:40:09;11.88;;;3.10;;
70078;SDS011;57451;52.496;13.456;2023-05-29T01:42:37;7.85;;;3.15;;
70078;SDS011;57451;52.496;13.456;2023-05-29T01:45:07;8.00;;;3.20;;
70078;SDS011;57451;52.496;13.456;2023-05-29T01:47:35;7.43;;;3.15;;
70078;SDS011;57451;52.496;13.456;2023-05-29T01:50:03;7.63;;;2.90;;
70078;SDS011;57451;52.496;13.456;2023-05-29T01:52:32;8.70;;;3.15;;
70078;SDS011;57451;52.496;13.456;2023-05-29T01:55:00;7.47;;;3.00;;
70078;SDS011;57451;52.496;13.456;2023-05-29T01:57:27;8.80;;;3.13;;
70078;SDS011;57451;52.496;13.456;2023-05-29T01:59:55;10.57;;;2.80;;
70078;SDS011;57451;52.496;13.456;2023-05-29T02:02:24;8.85;;;2.92;;
70078;SDS011;57451;52.496;13.456;2023-05-29T02:04:52;9.05;;;3.20;;
70078;SDS011;57451;52.496;13.456;2023-05-29T02:07:20;7.93;;;2.90;;
70078;SDS011;57451;52.496;13.456;2023-05-29T02:09:48;10.10;;;3.67;;
70078;SDS011;57451;52.496;13.456;2023-05-29T02:12:15;9.57;;;3.30;;
70078;SDS011;57451;52.496;13.456;2023-05-29T02:14:43;8.43;;;3.05;;
70078;SDS011;57451;52.496;13.456;2023-05-29T02:17:11;10.98;;;3.20;;
70078;SDS011;57451;52.496;13.456;2023-05-29T02:19:40;9.63;;;3.33;;
70078;SDS011;57451;52.496;13.456;2023-05-29T02:22:07;7.17;;;3.10;;
70078;SDS011;57451;52.496;13.456;2023-05-29T02:24:35;8.25;;;3.25;;
70078;SDS011;57451;52.496;13.456;2023-05-29T02:27:03;6.93;;;2.72;;
70078;SDS011;57451;52.496;13.456;2023-05-29T02:29:31;9.95;;;3.25;;
70078;SDS011;57451;52.496;13.456;2023-05-29T02:31:58;8.32;;;3.30;;
70078;SDS011;57451;52.496;13.456;2023-05-29T02:34:26;8.67;;;3.47;;
70078;SDS011;57451;52.496;13.456;2023-05-29T02:36:55;10.88;;;3.28;;
70078;SDS011;57451;52.496;13.456;2023-05-29T02:39:23;7.45;;;3.17;;
70078;SDS011;57451;52.496;13.456;2023-05-29T02:41:51;12.30;;;3.25;;
70078;SDS011;57451;52.496;13.456;2023-05-29T02:44:19;7.82;;;3.10;;
70078;SDS011;57451;52.496;13.456;2023-05-29T02:46:46;7.23;;;3.70;;
70078;SDS011;57451;52.496;13.456;2023-05-29T02:49:17;9.07;;;3.65;;
70078;SDS011;57451;52.496;13.456;2023-05-29T02:51:45;8.98;;;3.17;;
70078;SDS011;57451;52.496;13.456;2023-05-29T02:54:20;10.48;;;3.83;;
70078;SDS011;57451;52.496;13.456;2023-05-29T02:56:47;8.85;;;3.10;;
70078;SDS011;57451;52.496;13.456;2023-05-29T02:59:15;7.83;;;3.13;;
70078;SDS011;57451;52.496;13.456;2023-05-29T03:01:42;7.65;;;3.47;;
70078;SDS011;57451;52.496;13.456;2023-05-29T03:04:16;8.90;;;3.67;;
70078;SDS011;57451;52.496;13.456;2023-05-29T03:06:46;8.15;;;3.70;;
70078;SDS011;57451;52.496;13.456;2023-05-29T03:09:14;8.40;;;3.15;;
70078;SDS011;57451;52.496;13.456;2023-05-29T03:11:44;8.23;;;3.43;;
70078;SDS011;57451;52.496;13.456;2023-05-29T03:14:15;8.18;;;3.50;;
70078;SDS011;57451;52.496;13.456;2023-05-29T03:16:43;10.35;;;3.70;;
70078;SDS011;57451;52.496;13.456;2023-05-29T03:19:18;8.02;;;3.13;;
70078;SDS011;57451;52.496;13.456;2023-05-29T03:21:52;8.73;;;3.58;;
70078;SDS011;57451;52.496;13.456;2023-05-29T03:24:20;13.33;;;3.77;;
70078;SDS011;57451;52.496;13.456;2023-05-29T03:26:49;8.48;;;3.63;;
70078;SDS011;57451;52.496;13.456;2023-05-29T03:29:18;10.50;;;4.00;;
70078;SDS011;57451;52.496;13.456;2023-05-29T03:31:45;10.25;;;3.85;;
70078;SDS011;57451;52.496;13.456;2023-05-29T03:34:19;10.65;;;4.03;;
70078;SDS011;57451;52.496;13.456;2023-05-29T03:36:54;9.00;;;3.33;;
70078;SDS011;57451;52.496;13.456;2023-05-29T03:39:21;8.55;;;3.70;;
70078;SDS011;57451;52.496;13.456;2023-05-29T03:41:51;10.25;;;4.03;;
70078;SDS011;57451;52.496;13.456;2023-05-29T03:44:18;8.20;;;3.88;;
70078;SDS011;57451;52.496;13.456;2023-05-29T03:46:46;8.90;;;3.42;;
70078;SDS011;57451;52.496;13.456;2023-05-29T03:49:13;8.10;;;3.50;;
70078;SDS011;57451;52.496;13.456;2023-05-29T03:51:43;10.20;;;3.80;;
70078;SDS011;57451;52.496;13.456;2023-05-29T03:54:11;10.32;;;3.83;;
70078;SDS011;57451;52.496;13.456;2023-05-29T03:56:38;8.40;;;3.95;;
70078;SDS011;57451;52.496;13.456;2023-05-29T03:59:08;9.02;;;3.42;;
70078;SDS011;57451;52.496;13.456;2023-05-29T04:01:36;7.90;;;3.57;;
70078;SDS011;57451;52.496;13.456;2023-05-29T04:04:04;8.60;;;3.58;;
70078;SDS011;57451;52.496;13.456;2023-05-29T04:06:31;6.70;;;3.47;;
70078;SDS011;57451;52.496;13.456;2023-05-29T04:08:59;8.90;;;3.65;;
70078;SDS011;57451;52.496;13.456;2023-05-29T04:11:28;9.15;;;3.45;;
70078;SDS011;57451;52.496;13.456;2023-05-29T04:13:56;8.87;;;2.90;;
70078;SDS011;57451;52.496;13.456;2023-05-29T04:16:25;7.63;;;3.35;;
70078;SDS011;57451;52.496;13.456;2023-05-29T04:18:54;7.55;;;3.50;;
70078;SDS011;57451;52.496;13.456;2023-05-29T04:21:24;11.13;;;3.92;;
70078;SDS011;57451;52.496;13.456;2023-05-29T04:23:52;8.70;;;3.60;;
70078;SDS011;57451;52.496;13.456;2023-05-29T04:26:21;9.50;;;3.50;;
70078;SDS011;57451;52.496;13.456;2023-05-29T04:28:53;6.85;;;3.47;;
70078;SDS011;57451;52.496;13.456;2023-05-29T04:31:26;7.95;;;3.03;;
70078;SDS011;57451;52.496;13.456;2023-05-29T04:33:54;9.48;;;3.85;;
70078;SDS011;57451;52.496;13.456;2023-05-29T04:36:23;8.90;;;3.28;;
70078;SDS011;57451;52.496;13.456;2023-05-29T04:39:05;7.37;;;3.17;;
70078;SDS011;57451;52.496;13.456;2023-05-29T04:41:34;9.75;;;3.30;;
70078;SDS011;57451;52.496;13.456;2023-05-29T04:44:04;9.93;;;3.20;;
70078;SDS011;57451;52.496;13.456;2023-05-29T04:46:41;8.75;;;3.10;;
70078;SDS011;57451;52.496;13.456;2023-05-29T04:49:11;8.05;;;3.20;;
70078;SDS011;57451;52.496;13.456;2023-05-29T04:51:40;8.80;;;3.20;;
70078;SDS011;57451;52.496;13.456;2023-05-29T04:54:07;9.20;;;3.03;;
70078;SDS011;57451;52.496;13.456;2023-05-29T04:56:40;6.85;;;3.17;;
70078;SDS011;57451;52.496;13.456;2023-05-29T04:59:10;7.65;;;3.50;;
70078;SDS011;57451;52.496;13.456;2023-05-29T05:01:38;6.53;;;2.97;;
70078;SDS011;57451;52.496;13.456;2023-05-29T05:04:07;10.43;;;3.20;;
70078;SDS011;57451;52.496;13.456;2023-05-29T05:06:34;6.85;;;3.00;;
70078;SDS011;57451;52.496;13.456;2023-05-29T05:09:02;6.75;;;2.92;;
70078;SDS011;57451;52.496;13.456;2023-05-29T05:11:30;6.07;;;3.00;;
70078;SDS011;57451;52.496;13.456;2023-05-29T05:13:59;7.78;;;2.90;;
70078;SDS011;57451;52.496;13.456;2023-05-29T05:16:27;7.03;;;3.27;;
70078;SDS011;57451;52.496;13.456;2023-05-29T05:18:55;8.38;;;3.40;;
70078;SDS011;57451;52.496;13.456;2023-05-29T05:21:24;7.70;;;3.15;;
70078;SDS011;57451;52.496;13.456;2023-05-29T05:23:53;5.18;;;2.60;;
70078;SDS011;57451;52.496;13.456;2023-05-29T05:26:25;7.38;;;3.20;;
70078;SDS011;57451;52.496;13.456;2023-05-29T05:28:54;8.40;;;2.90;;
70078;SDS011;57451;52.496;13.456;2023-05-29T05:31:24;8.70;;;2.95;;
70078;SDS011;57451;52.496;13.456;2023-05-29T05:33:52;6.65;;;2.97;;
70078;SDS011;57451;52.496;13.456;2023-05-29T05:36:20;6.70;;;2.63;;
70078;SDS011;57451;52.496;13.456;2023-05-29T05:38:56;6.88;;;2.60;;
70078;SDS011;57451;52.496;13.456;2023-05-29T05:41:24;6.07;;;2.90;;
70078;SDS011;57451;52.496;13.456;2023-05-29T05:43:53;5.53;;;2.70;;
70078;SDS011;57451;52.496;13.456;2023-05-29T05:46:37;5.57;;;2.60;;
70078;SDS011;57451;52.496;13.456;2023-05-29T05:49:05;6.40;;;2.50;;
70078;SDS011;57451;52.496;13.456;2023-05-29T05:51:32;5.45;;;2.30;;
70078;SDS011;57451;52.496;13.456;2023-05-29T05:54:01;7.63;;;2.57;;
70078;SDS011;57451;52.496;13.456;2023-05-29T05:56:30;6.40;;;2.28;;
70078;SDS011;57451;52.496;13.456;2023-05-29T05:58:58;5.00;;;2.30;;
70078;SDS011;57451;52.496;13.456;2023-05-29T06:01:26;5.38;;;2.13;;
70078;SDS011;57451;52.496;13.456;2023-05-29T06:03:54;5.47;;;2.30;;
70078;SDS011;57451;52.496;13.456;2023-05-29T06:06:23;7.07;;;2.30;;
70078;SDS011;57451;52.496;13.456;2023-05-29T06:08:51;7.80;;;2.40;;
70078;SDS011;57451;52.496;13.456;2023-05-29T06:11:20;4.82;;;2.45;;
70078;SDS011;57451;52.496;13.456;2023-05-29T06:13:48;7.47;;;2.40;;
70078;SDS011;57451;52.496;13.456;2023-05-29T06:16:21;6.10;;;2.40;;
70078;SDS011;57451;52.496;13.456;2023-05-29T06:18:49;5.20;;;2.40;;
70078;SDS011;57451;52.496;13.456;2023-05-29T06:21:18;7.20;;;2.42;;
70078;SDS011;57451;52.496;13.456;2023-05-29T06:23:51;5.43;;;2.50;;
70078;SDS011;57451;52.496;13.456;2023-05-29T06:26:21;5.35;;;2.30;;
70078;SDS011;57451;52.496;13.456;2023-05-29T06:28:50;6.03;;;2.47;;
70078;SDS011;57451;52.496;13.456;2023-05-29T06:31:18;4.97;;;2.40;;
70078;SDS011;57451;52.496;13.456;2023-05-29T06:33:46;6.40;;;2.30;;
70078;SDS011;57451;52.496;13.456;2023-05-29T06:36:14;5.10;;;2.20;;
70078;SDS011;57451;52.496;13.456;2023-05-29T06:38:45;4.20;;;1.98;;
70078;SDS011;57451;52.496;13.456;2023-05-29T06:41:13;4.60;;;1.90;;
70078;SDS011;57451;52.496;13.456;2023-05-29T06:43:43;4.93;;;2.10;;
70078;SDS011;57451;52.496;13.456;2023-05-29T06:46:10;7.10;;;2.33;;
70078;SDS011;57451;52.496;13.456;2023-05-29T06:48:38;6.78;;;2.47;;
70078;SDS011;57451;52.496;13.456;2023-05-29T06:51:06;5.30;;;2.10;;
70078;SDS011;57451;52.496;13.456;2023-05-29T06:53:47;5.82;;;2.15;;
70078;SDS011;57451;52.496;13.456;2023-05-29T06:56:15;5.87;;;1.93;;
70078;SDS011;57451;52.496;13.456;2023-05-29T06:58:45;4.93;;;2.20;;
70078;SDS011;57451;52.496;13.456;2023-05-29T07:01:14;6.05;;;2.22;;
70078;SDS011;57451;52.496;13.456;2023-05-29T07:03:52;6.20;;;2.13;;
70078;SDS011;57451;52.496;13.456;2023-05-29T07:06:20;4.93;;;2.10;;
70078;SDS011;57451;52.496;13.456;2023-05-29T07:08:48;5.83;;;2.10;;
70078;SDS011;57451;52.496;13.456;2023-05-29T07:11:16;5.03;;;2.03;;
70078;SDS011;57451;52.496;13.456;2023-05-29T07:13:45;4.53;;;2.15;;
70078;SDS011;57451;52.496;13.456;2023-05-29T07:16:14;5.00;;;2.00;;
70078;SDS011;57451;52.496;13.456;2023-05-29T07:18:58;5.13;;;2.13;;
70078;SDS011;57451;52.496;13.456;2023-05-29T07:21:32;5.67;;;1.93;;
70078;SDS011;57451;52.496;13.456;2023-05-29T07:23:59;6.50;;;1.80;;
70078;SDS011;57451;52.496;13.456;2023-05-29T07:26:27;5.07;;;2.13;;
70078;SDS011;57451;52.496;13.456;2023-05-29T07:28:56;5.57;;;2.00;;
70078;SDS011;57451;52.496;13.456;2023-05-29T07:31:23;4.60;;;1.90;;
70078;SDS011;57451;52.496;13.456;2023-05-29T07:33:51;7.37;;;1.90;;
70078;SDS011;57451;52.496;13.456;2023-05-29T07:36:20;4.65;;;1.98;;
70078;SDS011;57451;52.496;13.456;2023-05-29T07:38:50;4.65;;;1.90;;
70078;SDS011;57451;52.496;13.456;2023-05-29T07:41:19;4.00;;;1.80;;
70078;SDS011;57451;52.496;13.456;2023-05-29T07:43:52;5.05;;;1.92;;
70078;SDS011;57451;52.496;13.456;2023-05-29T07:46:21;4.13;;;2.10;;
70078;SDS011;57451;52.496;13.456;2023-05-29T07:48:53;5.03;;;2.00;;
70078;SDS011;57451;52.496;13.456;2023-05-29T07:51:21;4.72;;;1.75;;
70078;SDS011;57451;52.496;13.456;2023-05-29T07:53:50;5.47;;;1.85;;
70078;SDS011;57451;52.496;13.456;2023-05-29T07:56:17;4.95;;;2.17;;
70078;SDS011;57451;52.496;13.456;2023-05-29T07:58:45;4.77;;;1.73;;
70078;SDS011;57451;52.496;13.456;2023-05-29T08:01:14;4.05;;;1.70;;
70078;SDS011;57451;52.496;13.456;2023-05-29T08:03:43;4.75;;;2.10;;
70078;SDS011;57451;52.496;13.456;2023-05-29T08:06:22;5.53;;;1.90;;
70078;SDS011;57451;52.496;13.456;2023-05-29T08:08:50;4.38;;;1.73;;
70078;SDS011;57451;52.496;13.456;2023-05-29T08:11:21;4.77;;;2.00;;
70078;SDS011;57451;52.496;13.456;2023-05-29T08:13:49;4.82;;;2.10;;
70078;SDS011;57451;52.496;13.456;2023-05-29T08:16:17;3.92;;;1.77;;
70078;SDS011;57451;52.496;13.456;2023-05-29T08:18:46;5.75;;;2.20;;
70078;SDS011;57451;52.496;13.456;2023-05-29T08:21:13;4.80;;;2.10;;
70078;SDS011;57451;52.496;13.456;2023-05-29T08:23:41;4.43;;;2.10;;
70078;SDS011;57451;52.496;13.456;2023-05-29T08:26:09;5.03;;;2.40;;
70078;SDS011;57451;52.496;13.456;2023-05-29T08:28:36;5.35;;;2.05;;
70078;SDS011;57451;52.496;13.456;2023-05-29T08:31:07;5.80;;;2.35;;
70078;SDS011;57451;52.496;13.456;2023-05-29T08:33:35;6.28;;;2.33;;
70078;SDS011;57451;52.496;13.456;2023-05-29T08:36:05;4.83;;;2.20;;
70078;SDS011;57451;52.496;13.456;2023-05-29T08:38:32;7.40;;;2.50;;
70078;SDS011;57451;52.496;13.456;2023-05-29T08:41:00;5.70;;;2.30;;
70078;SDS011;57451;52.496;13.456;2023-05-29T08:43:29;6.60;;;2.47;;
70078;SDS011;57451;52.496;13.456;2023-05-29T08:45:59;4.40;;;2.30;;
70078;SDS011;57451;52.496;13.456;2023-05-29T08:48:28;4.83;;;2.00;;
70078;SDS011;57451;52.496;13.456;2023-05-29T08:50:58;4.57;;;1.80;;
70078;SDS011;57451;52.496;13.456;2023-05-29T08:53:31;5.10;;;2.20;;
70078;SDS011;57451;52.496;13.456;2023-05-29T08:55:59;4.40;;;2.25;;
70078;SDS011;57451;52.496;13.456;2023-05-29T08:58:28;4.88;;;2.10;;
70078;SDS011;57451;52.496;13.456;2023-05-29T09:00:56;5.30;;;2.47;;
70078;SDS011;57451;52.496;13.456;2023-05-29T09:03:35;6.38;;;2.70;;
70078;SDS011;57451;52.496;13.456;2023-05-29T09:06:06;6.57;;;2.50;;
70078;SDS011;57451;52.496;13.456;2023-05-29T09:08:36;5.40;;;2.47;;
70078;SDS011;57451;52.496;13.456;2023-05-29T09:11:05;6.40;;;2.67;;
70078;SDS011;57451;52.496;13.456;2023-05-29T09:13:33;5.03;;;2.50;;
70078;SDS011;57451;52.496;13.456;2023-05-29T09:16:03;6.03;;;2.40;;
70078;SDS011;57451;52.496;13.456;2023-05-29T09:18:54;5.18;;;2.58;;
70078;SDS011;57451;52.496;13.456;2023-05-29T09:21:38;5.03;;;2.50;;
70078;SDS011;57451;52.496;13.456;2023-05-29T09:24:08;7.55;;;2.33;;
70078;SDS011;57451;52.496;13.456;2023-05-29T09:26:35;6.03;;;2.47;;
70078;SDS011;57451;52.496;13.456;2023-05-29T09:29:04;5.70;;;2.47;;
70078;SDS011;57451;52.496;13.456;2023-05-29T09:31:45;4.97;;;2.40;;
70078;SDS011;57451;52.496;13.456;2023-05-29T09:34:21;5.10;;;2.58;;
70078;SDS011;57451;52.496;13.456;2023-05-29T09:36:51;7.20;;;2.40;;
70078;SDS011;57451;52.496;13.456;2023-05-29T09:39:21;5.73;;;2.60;;
70078;SDS011;57451;52.496;13.456;2023-05-29T09:41:49;5.75;;;2.42;;
70078;SDS011;57451;52.496;13.456;2023-05-29T09:44:20;5.13;;;2.50;;
70078;SDS011;57451;52.496;13.456;2023-05-29T09:46:48;4.95;;;2.60;;
70078;SDS011;57451;52.496;13.456;2023-05-29T09:49:16;6.15;;;2.83;;
70078;SDS011;57451;52.496;13.456;2023-05-29T09:51:52;6.73;;;2.63;;
70078;SDS011;57451;52.496;13.456;2023-05-29T09:54:24;5.32;;;2.45;;
70078;SDS011;57451;52.496;13.456;2023-05-29T09:56:56;6.70;;;2.80;;
70078;SDS011;57451;52.496;13.456;2023-05-29T09:59:25;6.13;;;2.65;;
70078;SDS011;57451;52.496;13.456;2023-05-29T10:01:56;7.13;;;2.70;;
70078;SDS011;57451;52.496;13.456;2023-05-29T10:04:29;6.23;;;2.90;;
70078;SDS011;57451;52.496;13.456;2023-05-29T10:06:56;6.32;;;2.90;;
70078;SDS011;57451;52.496;13.456;2023-05-29T10:09:29;5.78;;;3.17;;
70078;SDS011;57451;52.496;13.456;2023-05-29T10:11:57;4.88;;;2.30;;
70078;SDS011;57451;52.496;13.456;2023-05-29T10:14:29;6.93;;;2.50;;
70078;SDS011;57451;52.496;13.456;2023-05-29T10:16:59;5.87;;;2.57;;
70078;SDS011;57451;52.496;13.456;2023-05-29T10:19:32;6.18;;;2.70;;
70078;SDS011;57451;52.496;13.456;2023-05-29T10:22:03;6.05;;;2.80;;
70078;SDS011;57451;52.496;13.456;2023-05-29T10:24:33;4.75;;;2.75;;
70078;SDS011;57451;52.496;13.456;2023-05-29T10:27:04;7.78;;;2.70;;
70078;SDS011;57451;52.496;13.456;2023-05-29T10:29:34;5.73;;;2.80;;
70078;SDS011;57451;52.496;13.456;2023-05-29T10:32:06;5.55;;;2.60;;
70078;SDS011;57451;52.496;13.456;2023-05-29T10:34:44;5.20;;;2.70;;
70078;SDS011;57451;52.496;13.456;2023-05-29T10:37:27;6.75;;;2.67;;
70078;SDS011;57451;52.496;13.456;2023-05-29T10:40:05;4.97;;;2.65;;
70078;SDS011;57451;52.496;13.456;2023-05-29T10:42:45;5.87;;;3.00;;
70078;SDS011;57451;52.496;13.456;2023-05-29T10:51:04;5.32;;;2.63;;
70078;SDS011;57451;52.496;13.456;2023-05-29T10:53:33;6.13;;;2.60;;
70078;SDS011;57451;52.496;13.456;2023-05-29T10:56:02;4.40;;;2.57;;
70078;SDS011;57451;52.496;13.456;2023-05-29T10:58:34;5.70;;;2.58;;
70078;SDS011;57451;52.496;13.456;2023-05-29T11:01:02;5.22;;;2.50;;
70078;SDS011;57451;52.496;13.456;2023-05-29T11:03:30;7.28;;;2.63;;
70078;SDS011;57451;52.496;13.456;2023-05-29T11:05:59;5.50;;;2.75;;
70078;SDS011;57451;52.496;13.456;2023-05-29T11:08:41;5.17;;;2.67;;
70078;SDS011;57451;52.496;13.456;2023-05-29T11:11:15;6.05;;;2.85;;
70078;SDS011;57451;52.496;13.456;2023-05-29T11:13:55;5.63;;;2.67;;
70078;SDS011;57451;52.496;13.456;2023-05-29T11:16:35;5.15;;;2.53;;
70078;SDS011;57451;52.496;13.456;2023-05-29T11:19:04;5.05;;;2.20;;
70078;SDS011;57451;52.496;13.456;2023-05-29T11:21:34;7.10;;;3.00;;
70078;SDS011;57451;52.496;13.456;2023-05-29T11:24:14;4.95;;;2.70;;
70078;SDS011;57451;52.496;13.456;2023-05-29T11:26:50;5.50;;;2.70;;
70078;SDS011;57451;52.496;13.456;2023-05-29T11:29:21;4.20;;;2.25;;
70078;SDS011;57451;52.496;13.456;2023-05-29T11:31:49;8.63;;;2.75;;
70078;SDS011;57451;52.496;13.456;2023-05-29T11:34:27;5.97;;;2.60;;
70078;SDS011;57451;52.496;13.456;2023-05-29T11:36:56;6.22;;;2.42;;
70078;SDS011;57451;52.496;13.456;2023-05-29T11:39:24;5.95;;;2.58;;
70078;SDS011;57451;52.496;13.456;2023-05-29T11:41:54;4.30;;;2.15;;
70078;SDS011;57451;52.496;13.456;2023-05-29T11:44:23;5.03;;;2.60;;
70078;SDS011;57451;52.496;13.456;2023-05-29T11:46:59;5.00;;;2.70;;
70078;SDS011;57451;52.496;13.456;2023-05-29T11:49:29;6.53;;;2.63;;
70078;SDS011;57451;52.496;13.456;2023-05-29T11:52:05;4.75;;;2.58;;
70078;SDS011;57451;52.496;13.456;2023-05-29T11:54:42;5.40;;;2.47;;
70078;SDS011;57451;52.496;13.456;2023-05-29T11:57:18;5.00;;;2.60;;
70078;SDS011;57451;52.496;13.456;2023-05-29T11:59:46;5.20;;;2.60;;
70078;SDS011;57451;52.496;13.456;2023-05-29T12:02:14;5.53;;;2.60;;
70078;SDS011;57451;52.496;13.456;2023-05-29T12:04:41;5.43;;;2.45;;
70078;SDS011;57451;52.496;13.456;2023-05-29T12:07:18;5.15;;;2.47;;
70078;SDS011;57451;52.496;13.456;2023-05-29T12:09:46;5.63;;;2.53;;
70078;SDS011;57451;52.496;13.456;2023-05-29T12:12:19;4.73;;;2.30;;
70078;SDS011;57451;52.496;13.456;2023-05-29T12:14:49;5.45;;;2.55;;
70078;SDS011;57451;52.496;13.456;2023-05-29T12:17:17;5.35;;;2.80;;
70078;SDS011;57451;52.496;13.456;2023-05-29T12:19:45;5.28;;;2.50;;
70078;SDS011;57451;52.496;13.456;2023-05-29T12:22:13;4.55;;;2.38;;
70078;SDS011;57451;52.496;13.456;2023-05-29T12:24:40;4.83;;;2.60;;
70078;SDS011;57451;52.496;13.456;2023-05-29T12:27:09;6.20;;;2.50;;
70078;SDS011;57451;52.496;13.456;2023-05-29T12:29:38;6.43;;;2.70;;
70078;SDS011;57451;52.496;13.456;2023-05-29T12:32:09;4.18;;;2.30;;
70078;SDS011;57451;52.496;13.456;2023-05-29T12:34:37;5.70;;;2.72;;
70078;SDS011;57451;52.496;13.456;2023-05-29T12:37:05;6.40;;;2.47;;
70078;SDS011;57451;52.496;13.456;2023-05-29T12:39:38;5.28;;;2.50;;
70078;SDS011;57451;52.496;13.456;2023-05-29T12:42:06;5.47;;;2.70;;
70078;SDS011;57451;52.496;13.456;2023-05-29T12:44:34;5.78;;;2.55;;
70078;SDS011;57451;52.496;13.456;2023-05-29T12:47:03;5.93;;;2.58;;
70078;SDS011;57451;52.496;13.456;2023-05-29T12:49:35;5.83;;;2.77;;
70078;SDS011;57451;52.496;13.456;2023-05-29T12:52:04;7.20;;;2.60;;
70078;SDS011;57451;52.496;13.456;2023-05-29T12:54:34;5.40;;;2.40;;
70078;SDS011;57451;52.496;13.456;2023-05-29T12:57:02;5.05;;;2.90;;
70078;SDS011;57451;52.496;13.456;2023-05-29T12:59:29;5.68;;;2.80;;
70078;SDS011;57451;52.496;13.456;2023-05-29T13:01:57;5.00;;;2.53;;
70078;SDS011;57451;52.496;13.456;2023-05-29T13:04:26;9.13;;;3.08;;
70078;SDS011;57451;52.496;13.456;2023-05-29T13:06:54;5.18;;;2.50;;
70078;SDS011;57451;52.496;13.456;2023-05-29T13:09:21;5.57;;;2.50;;
70078;SDS011;57451;52.496;13.456;2023-05-29T13:11:49;6.47;;;2.35;;
70078;SDS011;57451;52.496;13.456;2023-05-29T13:14:16;7.23;;;2.70;;
70078;SDS011;57451;52.496;13.456;2023-05-29T13:16:44;5.10;;;2.63;;
70078;SDS011;57451;52.496;13.456;2023-05-29T13:19:11;5.88;;;2.50;;
70078;SDS011;57451;52.496;13.456;2023-05-29T13:21:40;5.10;;;2.45;;
70078;SDS011;57451;52.496;13.456;2023-05-29T13:24:14;5.75;;;2.58;;
70078;SDS011;57451;52.496;13.456;2023-05-29T13:26:42;6.03;;;2.43;;
70078;SDS011;57451;52.496;13.456;2023-05-29T13:29:09;5.53;;;2.58;;
70078;SDS011;57451;52.496;13.456;2023-05-29T13:31:37;6.50;;;2.70;;
70078;SDS011;57451;52.496;13.456;2023-05-29T13:34:04;5.25;;;2.20;;
70078;SDS011;57451;52.496;13.456;2023-05-29T13:36:32;5.47;;;2.40;;
70078;SDS011;57451;52.496;13.456;2023-05-29T13:39:01;5.87;;;2.50;;
70078;SDS011;57451;52.496;13.456;2023-05-29T13:41:28;9.40;;;2.67;;
70078;SDS011;57451;52.496;13.456;2023-05-29T13:43:56;5.65;;;2.28;;
70078;SDS011;57451;52.496;13.456;2023-05-29T13:46:24;4.78;;;2.28;;
70078;SDS011;57451;52.496;13.456;2023-05-29T13:48:53;5.95;;;2.35;;
70078;SDS011;57451;52.496;13.456;2023-05-29T13:51:21;6.03;;;2.30;;
70078;SDS011;57451;52.496;13.456;2023-05-29T13:53:48;7.88;;;2.45;;
70078;SDS011;57451;52.496;13.456;2023-05-29T13:56:17;6.60;;;2.55;;
70078;SDS011;57451;52.496;13.456;2023-05-29T13:58:45;6.07;;;2.67;;
70078;SDS011;57451;52.496;13.456;2023-05-29T14:01:12;5.45;;;2.30;;
70078;SDS011;57451;52.496;13.456;2023-05-29T14:03:41;5.20;;;2.33;;
70078;SDS011;57451;52.496;13.456;2023-05-29T14:06:09;5.65;;;2.45;;
70078;SDS011;57451;52.496;13.456;2023-05-29T14:08:37;6.32;;;2.60;;
70078;SDS011;57451;52.496;13.456;2023-05-29T14:11:04;6.75;;;2.70;;
70078;SDS011;57451;52.496;13.456;2023-05-29T14:13:33;7.57;;;2.65;;
70078;SDS011;57451;52.496;13.456;2023-05-29T14:16:01;5.47;;;2.67;;
70078;SDS011;57451;52.496;13.456;2023-05-29T14:18:28;4.68;;;2.20;;
70078;SDS011;57451;52.496;13.456;2023-05-29T14:20:56;5.93;;;2.50;;
70078;SDS011;57451;52.496;13.456;2023-05-29T14:23:23;4.90;;;2.50;;
70078;SDS011;57451;52.496;13.456;2023-05-29T14:25:51;4.32;;;2.10;;
70078;SDS011;57451;52.496;13.456;2023-05-29T14:28:18;6.20;;;2.30;;
70078;SDS011;57451;52.496;13.456;2023-05-29T14:30:47;6.25;;;2.60;;
70078;SDS011;57451;52.496;13.456;2023-05-29T14:33:15;5.50;;;2.45;;
70078;SDS011;57451;52.496;13.456;2023-05-29T14:35:42;5.32;;;2.60;;
70078;SDS011;57451;52.496;13.456;2023-05-29T14:38:10;7.05;;;2.47;;
70078;SDS011;57451;52.496;13.456;2023-05-29T14:40:37;5.73;;;2.20;;
70078;SDS011;57451;52.496;13.456;2023-05-29T14:43:05;7.85;;;2.90;;
70078;SDS011;57451;52.496;13.456;2023-05-29T14:45:33;5.18;;;2.20;;
70078;SDS011;57451;52.496;13.456;2023-05-29T14:48:02;5.20;;;2.70;;
70078;SDS011;57451;52.496;13.456;2023-05-29T14:50:29;5.82;;;2.35;;
70078;SDS011;57451;52.496;13.456;2023-05-29T14:52:58;5.47;;;2.20;;